sensor_id;sensor_type;location;lat;lon;timestamp;noise_LAeq;noise_LA_min;noise_LA_max;noise_LA01;noise_LA95
46393;Laerm;32099;53.588;10.176;2023-05-07T00:00:36;35.78;32.01;49.15;;
46393;Laerm;32099;53.588;10.176;2023-05-07T00:03:02;35.11;32.18;41.68;;
46393;Laerm;32099;53.588;10.176;2023-05-07T00:05:27;36.48;31.51;49.78;;
46393;Laerm;32099;53.588;10.176;2023-05-07T00:07:52;36.99;33.45;49.30;;
46393;Laerm;32099;53.588;10.176;2023-05-07T00:10:18;35.28;32.61;43.63;;
46393;Laerm;32099;53.588;10.176;2023-05-07T00:12:44;44.86;32.79;64.99;;
46393;Laerm;32099;53.588;10.176;2023-05-07T00:15:10;34.96;31.88;42.23;;
46393;Laerm;32099;53.588;10.176;2023-05-07T00:17:36;35.03;32.11;44.34;;
46393;Laerm;32099;53.588;10.176;2023-05-07T00:20:02;34.79;32.16;43.33;;
46393;Laerm;32099;53.588;10.176;2023-05-07T00:22:28;45.32;33.92;64.55;;
46393;Laerm;32099;53.588;10.176;2023-05-07T00:24:55;35.79;32.53;44.18;;
46393;Laerm;32099;53.588;10.176;2023-05-07T00:27:20;37.11;32.88;51.43;;
46393;Laerm;32099;53.588;10.176;2023-05-07T00:29:46;38.11;33.40;53.11;;
46393;Laerm;32099;53.588;10.176;2023-05-07T00:32:11;39.47;33.06;56.25;;
46393;Laerm;32099;53.588;10.176;2023-05-07T00:34:36;45.80;34.16;77.29;;
46393;Laerm;32099;53.588;10.176;2023-05-07T00:37:01;38.99;34.62;49.14;;
46393;Laerm;32099;53.588;10.176;2023-05-07T00:39:27;39.48;35.32;52.65;;
46393;Laerm;32099;53.588;10.176;2023-05-07T00:41:52;45.09;35.52;63.12;;
46393;Laerm;32099;53.588;10.176;2023-05-07T00:44:17;38.91;34.75;52.77;;
46393;Laerm;32099;53.588;10.176;2023-05-07T00:46:43;39.50;34.90;51.05;;
46393;Laerm;32099;53.588;10.176;2023-05-07T00:49:10;39.92;33.75;54.27;;
46393;Laerm;32099;53.588;10.176;2023-05-07T00:51:35;36.46;32.95;46.24;;
46393;Laerm;32099;53.588;10.176;2023-05-07T00:54:02;36.25;32.94;46.84;;
46393;Laerm;32099;53.588;10.176;2023-05-07T00:56:27;35.45;32.56;42.97;;
46393;Laerm;32099;53.588;10.176;2023-05-07T00:58:53;36.35;32.80;48.49;;
46393;Laerm;32099;53.588;10.176;2023-05-07T01:01:18;36.23;31.78;49.31;;
46393;Laerm;32099;53.588;10.176;2023-05-07T01:03:44;34.12;31.80;45.02;;
46393;Laerm;32099;53.588;10.176;2023-05-07T01:06:10;35.79;31.48;48.34;;
46393;Laerm;32099;53.588;10.176;2023-05-07T01:08:39;34.70;31.69;44.15;;
46393;Laerm;32099;53.588;10.176;2023-05-07T01:11:05;35.48;32.30;45.73;;
46393;Laerm;32099;53.588;10.176;2023-05-07T01:13:31;36.38;32.15;48.32;;
46393;Laerm;32099;53.588;10.176;2023-05-07T01:15:57;37.78;33.78;51.05;;
46393;Laerm;32099;53.588;10.176;2023-05-07T01:18:22;38.60;33.69;54.92;;
46393;Laerm;32099;53.588;10.176;2023-05-07T01:20:48;46.81;32.09;68.12;;
46393;Laerm;32099;53.588;10.176;2023-05-07T01:23:14;45.69;31.64;66.37;;
46393;Laerm;32099;53.588;10.176;2023-05-07T01:25:40;34.26;31.56;42.78;;
46393;Laerm;32099;53.588;10.176;2023-05-07T01:28:05;35.16;31.69;44.70;;
46393;Laerm;32099;53.588;10.176;2023-05-07T01:30:32;34.78;32.28;45.31;;
46393;Laerm;32099;53.588;10.176;2023-05-07T01:33:08;36.71;33.03;48.75;;
46393;Laerm;32099;53.588;10.176;2023-05-07T01:35:38;38.04;33.44;50.18;;
46393;Laerm;32099;53.588;10.176;2023-05-07T01:38:04;39.17;33.72;63.62;;
46393;Laerm;32099;53.588;10.176;2023-05-07T01:40:31;35.77;32.21;47.27;;
46393;Laerm;32099;53.588;10.176;2023-05-07T01:42:56;34.46;32.24;41.66;;
46393;Laerm;32099;53.588;10.176;2023-05-07T01:45:22;36.03;32.17;47.97;;
46393;Laerm;32099;53.588;10.176;2023-05-07T01:47:49;34.01;31.25;42.26;;
46393;Laerm;32099;53.588;10.176;2023-05-07T01:50:15;34.94;32.23;42.91;;
46393;Laerm;32099;53.588;10.176;2023-05-07T01:52:41;34.44;31.93;41.52;;
46393;Laerm;32099;53.588;10.176;2023-05-07T01:55:07;37.23;32.67;53.01;;
46393;Laerm;32099;53.588;10.176;2023-05-07T01:57:32;35.99;33.04;45.14;;
46393;Laerm;32099;53.588;10.176;2023-05-07T01:59:58;35.35;32.44;43.45;;
46393;Laerm;32099;53.588;10.176;2023-05-07T02:02:23;36.27;31.87;49.13;;
46393;Laerm;32099;53.588;10.176;2023-05-07T02:04:49;37.70;31.89;51.32;;
46393;Laerm;32099;53.588;10.176;2023-05-07T02:07:14;35.78;32.38;45.62;;
46393;Laerm;32099;53.588;10.176;2023-05-07T02:09:39;36.31;32.40;51.94;;
46393;Laerm;32099;53.588;10.176;2023-05-07T02:12:05;37.14;33.07;54.43;;
46393;Laerm;32099;53.588;10.176;2023-05-07T02:14:30;35.51;32.30;43.28;;
46393;Laerm;32099;53.588;10.176;2023-05-07T02:16:55;35.36;32.23;44.85;;
46393;Laerm;32099;53.588;10.176;2023-05-07T02:19:21;36.27;32.36;53.68;;
46393;Laerm;32099;53.588;10.176;2023-05-07T02:21:46;38.07;33.71;49.31;;
46393;Laerm;32099;53.588;10.176;2023-05-07T02:24:12;46.92;33.15;67.02;;
46393;Laerm;32099;53.588;10.176;2023-05-07T02:26:37;43.59;32.10;59.25;;
46393;Laerm;32099;53.588;10.176;2023-05-07T02:29:02;45.81;32.91;67.13;;
46393;Laerm;32099;53.588;10.176;2023-05-07T02:31:27;49.02;32.71;68.20;;
46393;Laerm;32099;53.588;10.176;2023-05-07T02:33:53;48.41;32.29;66.51;;
46393;Laerm;32099;53.588;10.176;2023-05-07T02:36:18;47.49;32.74;67.40;;
46393;Laerm;32099;53.588;10.176;2023-05-07T02:38:43;46.52;33.14;62.82;;
46393;Laerm;32099;53.588;10.176;2023-05-07T02:41:09;46.81;33.33;63.14;;
46393;Laerm;32099;53.588;10.176;2023-05-07T02:43:34;47.78;33.11;67.00;;
46393;Laerm;32099;53.588;10.176;2023-05-07T02:46:01;52.85;33.62;70.01;;
46393;Laerm;32099;53.588;10.176;2023-05-07T02:48:26;54.82;34.82;70.21;;
46393;Laerm;32099;53.588;10.176;2023-05-07T02:50:52;53.99;34.89;70.84;;
46393;Laerm;32099;53.588;10.176;2023-05-07T02:53:17;54.33;36.06;69.28;;
46393;Laerm;32099;53.588;10.176;2023-05-07T02:55:42;52.04;37.38;69.25;;
46393;Laerm;32099;53.588;10.176;2023-05-07T02:58:07;51.99;36.65;67.05;;
46393;Laerm;32099;53.588;10.176;2023-05-07T03:00:33;47.94;36.03;62.58;;
46393;Laerm;32099;53.588;10.176;2023-05-07T03:02:58;47.35;34.81;63.89;;
46393;Laerm;32099;53.588;10.176;2023-05-07T03:05:23;48.33;35.42;65.99;;
46393;Laerm;32099;53.588;10.176;2023-05-07T03:07:49;44.65;34.22;54.38;;
46393;Laerm;32099;53.588;10.176;2023-05-07T03:10:14;45.54;34.61;57.74;;
46393;Laerm;32099;53.588;10.176;2023-05-07T03:12:40;47.76;35.34;61.63;;
46393;Laerm;32099;53.588;10.176;2023-05-07T03:15:05;44.86;34.59;59.14;;
46393;Laerm;32099;53.588;10.176;2023-05-07T03:17:31;43.57;35.03;55.65;;
46393;Laerm;32099;53.588;10.176;2023-05-07T03:19:56;44.36;35.30;64.43;;
46393;Laerm;32099;53.588;10.176;2023-05-07T03:22:21;45.84;35.21;60.15;;
46393;Laerm;32099;53.588;10.176;2023-05-07T03:24:47;43.78;35.19;57.59;;
46393;Laerm;32099;53.588;10.176;2023-05-07T03:27:12;44.95;34.79;60.15;;
46393;Laerm;32099;53.588;10.176;2023-05-07T03:29:37;42.78;34.07;64.86;;
46393;Laerm;32099;53.588;10.176;2023-05-07T03:32:03;47.75;34.88;68.34;;
46393;Laerm;32099;53.588;10.176;2023-05-07T03:34:28;50.78;34.18;69.66;;
46393;Laerm;32099;53.588;10.176;2023-05-07T03:36:53;42.33;33.86;55.95;;
46393;Laerm;32099;53.588;10.176;2023-05-07T03:39:19;43.31;34.58;59.49;;
46393;Laerm;32099;53.588;10.176;2023-05-07T03:41:44;43.73;34.45;59.45;;
46393;Laerm;32099;53.588;10.176;2023-05-07T03:44:09;48.93;35.06;67.04;;
46393;Laerm;32099;53.588;10.176;2023-05-07T03:46:35;51.45;34.51;69.63;;
46393;Laerm;32099;53.588;10.176;2023-05-07T03:49:00;48.11;34.39;67.07;;
46393;Laerm;32099;53.588;10.176;2023-05-07T03:51:25;47.09;34.41;68.71;;
46393;Laerm;32099;53.588;10.176;2023-05-07T03:53:51;44.11;34.30;66.62;;
46393;Laerm;32099;53.588;10.176;2023-05-07T03:56:22;39.88;33.68;52.31;;
46393;Laerm;32099;53.588;10.176;2023-05-07T03:58:47;40.19;33.68;54.27;;
46393;Laerm;32099;53.588;10.176;2023-05-07T04:01:12;42.74;34.24;59.20;;
46393;Laerm;32099;53.588;10.176;2023-05-07T04:03:37;42.38;33.10;61.09;;
46393;Laerm;32099;53.588;10.176;2023-05-07T04:06:03;46.73;33.38;67.54;;
46393;Laerm;32099;53.588;10.176;2023-05-07T04:08:28;40.45;33.91;53.46;;
46393;Laerm;32099;53.588;10.176;2023-05-07T04:10:55;46.05;32.93;67.08;;
46393;Laerm;32099;53.588;10.176;2023-05-07T04:13:20;39.10;32.79;56.75;;
46393;Laerm;32099;53.588;10.176;2023-05-07T04:15:45;39.75;32.28;58.18;;
46393;Laerm;32099;53.588;10.176;2023-05-07T04:18:11;39.13;33.26;51.51;;
46393;Laerm;32099;53.588;10.176;2023-05-07T04:20:36;42.12;32.98;63.42;;
46393;Laerm;32099;53.588;10.176;2023-05-07T04:23:02;39.92;32.70;53.32;;
46393;Laerm;32099;53.588;10.176;2023-05-07T04:25:27;41.46;33.98;56.73;;
46393;Laerm;32099;53.588;10.176;2023-05-07T04:27:52;40.12;33.02;54.68;;
46393;Laerm;32099;53.588;10.176;2023-05-07T04:30:17;38.83;32.77;58.77;;
46393;Laerm;32099;53.588;10.176;2023-05-07T04:32:43;40.74;33.00;58.01;;
46393;Laerm;32099;53.588;10.176;2023-05-07T04:35:09;40.97;33.12;56.80;;
46393;Laerm;32099;53.588;10.176;2023-05-07T04:37:35;46.62;33.89;68.78;;
46393;Laerm;32099;53.588;10.176;2023-05-07T04:40:00;42.50;34.00;59.09;;
46393;Laerm;32099;53.588;10.176;2023-05-07T04:42:27;42.46;35.02;58.43;;
46393;Laerm;32099;53.588;10.176;2023-05-07T04:44:53;41.78;33.20;56.96;;
46393;Laerm;32099;53.588;10.176;2023-05-07T04:47:19;45.26;34.20;67.55;;
46393;Laerm;32099;53.588;10.176;2023-05-07T04:49:44;46.55;33.81;64.49;;
46393;Laerm;32099;53.588;10.176;2023-05-07T04:52:09;49.60;34.01;65.71;;
46393;Laerm;32099;53.588;10.176;2023-05-07T04:54:35;37.61;32.91;52.21;;
46393;Laerm;32099;53.588;10.176;2023-05-07T04:57:00;37.18;33.20;53.09;;
46393;Laerm;32099;53.588;10.176;2023-05-07T04:59:25;49.30;35.18;63.08;;
46393;Laerm;32099;53.588;10.176;2023-05-07T05:01:50;43.80;34.08;65.97;;
46393;Laerm;32099;53.588;10.176;2023-05-07T05:04:16;40.59;33.99;59.78;;
46393;Laerm;32099;53.588;10.176;2023-05-07T05:06:41;37.33;33.49;50.83;;
46393;Laerm;32099;53.588;10.176;2023-05-07T05:09:06;47.30;33.71;69.01;;
46393;Laerm;32099;53.588;10.176;2023-05-07T05:11:32;37.35;33.74;56.53;;
46393;Laerm;32099;53.588;10.176;2023-05-07T05:13:59;44.96;33.63;58.16;;
46393;Laerm;32099;53.588;10.176;2023-05-07T05:16:24;38.54;34.18;51.03;;
46393;Laerm;32099;53.588;10.176;2023-05-07T05:18:49;39.18;33.63;54.84;;
46393;Laerm;32099;53.588;10.176;2023-05-07T05:21:17;52.50;33.83;71.85;;
46393;Laerm;32099;53.588;10.176;2023-05-07T05:23:42;54.81;34.85;70.64;;
46393;Laerm;32099;53.588;10.176;2023-05-07T05:26:07;41.61;34.76;52.66;;
46393;Laerm;32099;53.588;10.176;2023-05-07T05:28:33;40.37;34.69;65.46;;
46393;Laerm;32099;53.588;10.176;2023-05-07T05:30:58;47.59;35.39;65.58;;
46393;Laerm;32099;53.588;10.176;2023-05-07T05:33:23;45.70;34.50;72.48;;
46393;Laerm;32099;53.588;10.176;2023-05-07T05:35:49;49.46;34.04;69.34;;
46393;Laerm;32099;53.588;10.176;2023-05-07T05:38:15;41.52;34.07;64.14;;
46393;Laerm;32099;53.588;10.176;2023-05-07T05:40:40;39.36;34.13;56.24;;
46393;Laerm;32099;53.588;10.176;2023-05-07T05:43:06;40.32;34.84;53.47;;
46393;Laerm;32099;53.588;10.176;2023-05-07T05:45:31;46.52;34.99;65.07;;
46393;Laerm;32099;53.588;10.176;2023-05-07T05:47:56;46.23;35.38;63.48;;
46393;Laerm;32099;53.588;10.176;2023-05-07T05:50:22;52.90;35.47;72.40;;
46393;Laerm;32099;53.588;10.176;2023-05-07T05:52:47;39.57;34.28;49.08;;
46393;Laerm;32099;53.588;10.176;2023-05-07T05:55:13;46.95;33.87;67.83;;
46393;Laerm;32099;53.588;10.176;2023-05-07T05:57:38;42.38;34.54;60.52;;
46393;Laerm;32099;53.588;10.176;2023-05-07T06:00:04;47.65;35.83;68.66;;
46393;Laerm;32099;53.588;10.176;2023-05-07T06:02:29;47.99;35.24;62.94;;
46393;Laerm;32099;53.588;10.176;2023-05-07T06:04:54;45.84;34.70;64.36;;
46393;Laerm;32099;53.588;10.176;2023-05-07T06:07:20;51.02;35.45;67.95;;
46393;Laerm;32099;53.588;10.176;2023-05-07T06:09:45;43.54;36.08;57.52;;
46393;Laerm;32099;53.588;10.176;2023-05-07T06:12:11;40.88;35.47;53.71;;
46393;Laerm;32099;53.588;10.176;2023-05-07T06:14:36;43.93;34.38;64.58;;
46393;Laerm;32099;53.588;10.176;2023-05-07T06:17:02;41.54;35.72;60.10;;
46393;Laerm;32099;53.588;10.176;2023-05-07T06:19:27;41.88;36.20;59.36;;
46393;Laerm;32099;53.588;10.176;2023-05-07T06:21:53;40.59;36.08;60.55;;
46393;Laerm;32099;53.588;10.176;2023-05-07T06:24:18;42.01;35.72;62.45;;
46393;Laerm;32099;53.588;10.176;2023-05-07T06:26:43;48.62;35.92;65.39;;
46393;Laerm;32099;53.588;10.176;2023-05-07T06:29:09;49.88;36.24;68.40;;
46393;Laerm;32099;53.588;10.176;2023-05-07T06:31:34;40.16;34.82;53.20;;
46393;Laerm;32099;53.588;10.176;2023-05-07T06:33:59;42.29;35.55;63.58;;
46393;Laerm;32099;53.588;10.176;2023-05-07T06:36:27;55.37;35.95;76.20;;
46393;Laerm;32099;53.588;10.176;2023-05-07T06:38:52;44.45;36.56;57.71;;
46393;Laerm;32099;53.588;10.176;2023-05-07T06:41:17;49.06;36.06;67.76;;
46393;Laerm;32099;53.588;10.176;2023-05-07T06:43:43;46.00;36.74;68.46;;
46393;Laerm;32099;53.588;10.176;2023-05-07T06:46:08;49.22;36.09;71.17;;
46393;Laerm;32099;53.588;10.176;2023-05-07T06:48:33;48.18;35.63;69.95;;
46393;Laerm;32099;53.588;10.176;2023-05-07T06:50:58;48.40;37.10;65.47;;
46393;Laerm;32099;53.588;10.176;2023-05-07T06:53:24;42.49;35.72;56.55;;
46393;Laerm;32099;53.588;10.176;2023-05-07T06:55:50;52.16;36.42;67.86;;
46393;Laerm;32099;53.588;10.176;2023-05-07T06:58:17;51.30;36.26;72.73;;
46393;Laerm;32099;53.588;10.176;2023-05-07T07:00:42;45.71;36.47;67.20;;
46393;Laerm;32099;53.588;10.176;2023-05-07T07:03:07;40.74;36.20;58.20;;
46393;Laerm;32099;53.588;10.176;2023-05-07T07:05:32;44.27;35.99;64.03;;
46393;Laerm;32099;53.588;10.176;2023-05-07T07:07:58;47.01;36.67;67.72;;
46393;Laerm;32099;53.588;10.176;2023-05-07T07:10:23;53.56;37.58;71.62;;
46393;Laerm;32099;53.588;10.176;2023-05-07T07:12:49;42.56;37.98;57.11;;
46393;Laerm;32099;53.588;10.176;2023-05-07T07:15:15;41.30;36.70;55.23;;
46393;Laerm;32099;53.588;10.176;2023-05-07T07:17:40;49.68;36.73;68.06;;
46393;Laerm;32099;53.588;10.176;2023-05-07T07:20:06;52.78;36.75;70.14;;
46393;Laerm;32099;53.588;10.176;2023-05-07T07:22:32;41.46;36.52;56.82;;
46393;Laerm;32099;53.588;10.176;2023-05-07T07:24:57;48.44;37.22;65.67;;
46393;Laerm;32099;53.588;10.176;2023-05-07T07:27:22;41.30;37.08;55.43;;
46393;Laerm;32099;53.588;10.176;2023-05-07T07:29:47;47.25;36.58;64.89;;
46393;Laerm;32099;53.588;10.176;2023-05-07T07:32:13;47.06;35.91;62.40;;
46393;Laerm;32099;53.588;10.176;2023-05-07T07:34:38;52.86;35.82;70.63;;
46393;Laerm;32099;53.588;10.176;2023-05-07T07:37:03;46.30;36.27;64.88;;
46393;Laerm;32099;53.588;10.176;2023-05-07T07:39:31;51.98;37.33;74.96;;
46393;Laerm;32099;53.588;10.176;2023-05-07T07:41:57;42.27;37.52;52.37;;
46393;Laerm;32099;53.588;10.176;2023-05-07T07:44:22;47.90;38.30;64.75;;
46393;Laerm;32099;53.588;10.176;2023-05-07T07:46:47;50.57;38.00;69.97;;
46393;Laerm;32099;53.588;10.176;2023-05-07T07:49:13;52.08;37.99;69.86;;
46393;Laerm;32099;53.588;10.176;2023-05-07T07:51:38;49.32;37.35;70.21;;
46393;Laerm;32099;53.588;10.176;2023-05-07T07:54:03;49.66;37.76;68.33;;
46393;Laerm;32099;53.588;10.176;2023-05-07T07:56:29;51.64;37.24;69.72;;
46393;Laerm;32099;53.588;10.176;2023-05-07T07:58:54;45.36;39.19;56.61;;
46393;Laerm;32099;53.588;10.176;2023-05-07T08:01:19;44.98;37.30;65.06;;
46393;Laerm;32099;53.588;10.176;2023-05-07T08:03:45;45.17;37.18;66.03;;
46393;Laerm;32099;53.588;10.176;2023-05-07T08:06:10;46.53;38.32;62.70;;
46393;Laerm;32099;53.588;10.176;2023-05-07T08:08:35;50.99;37.97;67.43;;
46393;Laerm;32099;53.588;10.176;2023-05-07T08:11:01;46.90;36.76;70.43;;
46393;Laerm;32099;53.588;10.176;2023-05-07T08:13:26;46.40;38.69;58.86;;
46393;Laerm;32099;53.588;10.176;2023-05-07T08:15:51;48.79;37.87;67.82;;
46393;Laerm;32099;53.588;10.176;2023-05-07T08:18:17;49.99;37.97;70.03;;
46393;Laerm;32099;53.588;10.176;2023-05-07T08:20:42;44.93;37.40;66.05;;
46393;Laerm;32099;53.588;10.176;2023-05-07T08:23:08;44.87;37.37;63.42;;
46393;Laerm;32099;53.588;10.176;2023-05-07T08:25:34;49.36;37.69;66.60;;
46393;Laerm;32099;53.588;10.176;2023-05-07T08:27:59;50.28;37.29;68.85;;
46393;Laerm;32099;53.588;10.176;2023-05-07T08:30:25;48.07;36.59;66.79;;
46393;Laerm;32099;53.588;10.176;2023-05-07T08:32:50;51.45;38.12;67.12;;
46393;Laerm;32099;53.588;10.176;2023-05-07T08:35:15;52.32;37.11;70.22;;
46393;Laerm;32099;53.588;10.176;2023-05-07T08:37:40;53.11;37.65;70.55;;
46393;Laerm;32099;53.588;10.176;2023-05-07T08:40:06;47.99;37.31;66.23;;
46393;Laerm;32099;53.588;10.176;2023-05-07T08:42:35;41.20;36.50;57.18;;
46393;Laerm;32099;53.588;10.176;2023-05-07T08:45:02;50.51;36.97;67.35;;
46393;Laerm;32099;53.588;10.176;2023-05-07T08:47:34;47.64;37.43;67.90;;
46393;Laerm;32099;53.588;10.176;2023-05-07T08:50:04;47.07;37.44;66.59;;
46393;Laerm;32099;53.588;10.176;2023-05-07T08:52:30;44.72;37.52;60.55;;
46393;Laerm;32099;53.588;10.176;2023-05-07T08:54:56;42.28;37.12;64.62;;
46393;Laerm;32099;53.588;10.176;2023-05-07T08:57:21;48.38;37.13;66.57;;
46393;Laerm;32099;53.588;10.176;2023-05-07T08:59:48;48.53;37.28;66.82;;
46393;Laerm;32099;53.588;10.176;2023-05-07T09:02:13;46.44;36.71;65.66;;
46393;Laerm;32099;53.588;10.176;2023-05-07T09:04:39;45.11;37.14;61.36;;
46393;Laerm;32099;53.588;10.176;2023-05-07T09:07:04;43.43;36.95;58.97;;
46393;Laerm;32099;53.588;10.176;2023-05-07T09:09:32;50.51;36.48;70.21;;
46393;Laerm;32099;53.588;10.176;2023-05-07T09:11:57;42.81;35.88;60.53;;
46393;Laerm;32099;53.588;10.176;2023-05-07T09:14:27;48.72;37.28;66.41;;
46393;Laerm;32099;53.588;10.176;2023-05-07T09:16:52;52.07;37.60;76.52;;
46393;Laerm;32099;53.588;10.176;2023-05-07T09:19:25;41.66;36.98;54.91;;
46393;Laerm;32099;53.588;10.176;2023-05-07T09:21:58;40.97;37.11;55.97;;
46393;Laerm;32099;53.588;10.176;2023-05-07T09:24:24;44.83;37.72;58.97;;
46393;Laerm;32099;53.588;10.176;2023-05-07T09:26:49;48.36;38.13;65.33;;
46393;Laerm;32099;53.588;10.176;2023-05-07T09:29:15;49.86;37.07;67.34;;
46393;Laerm;32099;53.588;10.176;2023-05-07T09:31:40;46.48;37.70;64.66;;
46393;Laerm;32099;53.588;10.176;2023-05-07T09:34:06;50.94;37.65;71.79;;
46393;Laerm;32099;53.588;10.176;2023-05-07T09:36:32;43.12;37.45;58.43;;
46393;Laerm;32099;53.588;10.176;2023-05-07T09:38:59;42.08;37.58;53.85;;
46393;Laerm;32099;53.588;10.176;2023-05-07T09:41:26;47.34;37.08;63.63;;
46393;Laerm;32099;53.588;10.176;2023-05-07T09:43:54;50.51;39.13;67.47;;
46393;Laerm;32099;53.588;10.176;2023-05-07T09:46:25;44.16;37.63;60.11;;
46393;Laerm;32099;53.588;10.176;2023-05-07T09:48:53;50.41;37.99;67.64;;
46393;Laerm;32099;53.588;10.176;2023-05-07T09:51:25;49.17;38.91;65.47;;
46393;Laerm;32099;53.588;10.176;2023-05-07T09:53:53;44.32;37.54;56.34;;
46393;Laerm;32099;53.588;10.176;2023-05-07T09:56:19;45.62;37.92;62.40;;
46393;Laerm;32099;53.588;10.176;2023-05-07T09:58:46;43.74;37.74;57.68;;
46393;Laerm;32099;53.588;10.176;2023-05-07T10:01:12;52.20;38.51;76.44;;
46393;Laerm;32099;53.588;10.176;2023-05-07T10:03:40;50.54;38.12;75.07;;
46393;Laerm;32099;53.588;10.176;2023-05-07T10:06:08;52.61;37.45;68.64;;
46393;Laerm;32099;53.588;10.176;2023-05-07T10:08:35;51.49;37.32;66.47;;
46393;Laerm;32099;53.588;10.176;2023-05-07T10:11:01;51.71;37.34;70.96;;
46393;Laerm;32099;53.588;10.176;2023-05-07T10:13:26;48.95;36.45;67.32;;
46393;Laerm;32099;53.588;10.176;2023-05-07T10:15:52;48.09;37.23;63.93;;
46393;Laerm;32099;53.588;10.176;2023-05-07T10:18:19;46.21;37.47;60.74;;
46393;Laerm;32099;53.588;10.176;2023-05-07T10:20:50;53.45;36.53;68.86;;
46393;Laerm;32099;53.588;10.176;2023-05-07T10:23:19;48.71;37.32;64.90;;
46393;Laerm;32099;53.588;10.176;2023-05-07T10:25:48;50.70;37.17;66.93;;
46393;Laerm;32099;53.588;10.176;2023-05-07T10:28:14;51.58;38.27;68.04;;
46393;Laerm;32099;53.588;10.176;2023-05-07T10:33:27;48.92;37.34;67.99;;
46393;Laerm;32099;53.588;10.176;2023-05-07T10:35:57;52.86;37.67;73.91;;
46393;Laerm;32099;53.588;10.176;2023-05-07T10:38:24;50.65;37.84;63.65;;
46393;Laerm;32099;53.588;10.176;2023-05-07T10:40:50;44.77;38.46;58.00;;
46393;Laerm;32099;53.588;10.176;2023-05-07T10:43:16;42.29;36.30;63.56;;
46393;Laerm;32099;53.588;10.176;2023-05-07T10:45:41;53.68;37.58;71.79;;
46393;Laerm;32099;53.588;10.176;2023-05-07T10:50:42;47.65;37.28;65.32;;
46393;Laerm;32099;53.588;10.176;2023-05-07T10:55:42;50.32;38.96;68.15;;
46393;Laerm;32099;53.588;10.176;2023-05-07T10:58:26;55.27;38.83;72.71;;
46393;Laerm;32099;53.588;10.176;2023-05-07T11:01:00;54.20;37.46;72.77;;
46393;Laerm;32099;53.588;10.176;2023-05-07T11:03:26;50.53;36.51;67.64;;
46393;Laerm;32099;53.588;10.176;2023-05-07T11:06:12;51.17;37.75;70.06;;
46393;Laerm;32099;53.588;10.176;2023-05-07T11:11:16;53.70;37.15;70.82;;
46393;Laerm;32099;53.588;10.176;2023-05-07T11:13:48;47.21;37.89;66.00;;
46393;Laerm;32099;53.588;10.176;2023-05-07T11:16:21;53.35;38.00;71.43;;
46393;Laerm;32099;53.588;10.176;2023-05-07T11:18:51;50.75;36.89;66.65;;
46393;Laerm;32099;53.588;10.176;2023-05-07T11:21:36;48.64;36.44;70.36;;
46393;Laerm;32099;53.588;10.176;2023-05-07T11:24:03;44.30;36.91;59.41;;
46393;Laerm;32099;53.588;10.176;2023-05-07T11:26:31;47.63;36.42;64.55;;
46393;Laerm;32099;53.588;10.176;2023-05-07T11:28:57;42.32;36.73;56.84;;
46393;Laerm;32099;53.588;10.176;2023-05-07T11:31:25;51.16;37.32;69.49;;
46393;Laerm;32099;53.588;10.176;2023-05-07T11:33:52;48.05;37.87;66.90;;
46393;Laerm;32099;53.588;10.176;2023-05-07T11:36:18;51.97;37.42;69.65;;
46393;Laerm;32099;53.588;10.176;2023-05-07T11:38:44;51.22;37.58;70.11;;
46393;Laerm;32099;53.588;10.176;2023-05-07T11:41:10;53.78;37.65;72.20;;
46393;Laerm;32099;53.588;10.176;2023-05-07T11:43:35;49.56;38.23;63.47;;
46393;Laerm;32099;53.588;10.176;2023-05-07T11:46:11;48.63;38.00;65.72;;
46393;Laerm;32099;53.588;10.176;2023-05-07T11:48:36;52.83;37.98;72.91;;
46393;Laerm;32099;53.588;10.176;2023-05-07T11:51:04;50.36;37.80;67.89;;
46393;Laerm;32099;53.588;10.176;2023-05-07T11:53:40;44.01;37.77;67.31;;
46393;Laerm;32099;53.588;10.176;2023-05-07T11:56:13;52.49;38.23;73.30;;
46393;Laerm;32099;53.588;10.176;2023-05-07T11:58:40;52.05;38.90;68.36;;
46393;Laerm;32099;53.588;10.176;2023-05-07T12:01:09;45.23;37.68;59.96;;
46393;Laerm;32099;53.588;10.176;2023-05-07T12:03:35;52.03;37.63;69.91;;
46393;Laerm;32099;53.588;10.176;2023-05-07T12:06:05;49.71;38.27;68.63;;
46393;Laerm;32099;53.588;10.176;2023-05-07T12:08:31;51.81;36.90;69.13;;
46393;Laerm;32099;53.588;10.176;2023-05-07T12:10:56;50.54;36.56;67.60;;
46393;Laerm;32099;53.588;10.176;2023-05-07T12:13:25;43.16;36.69;56.58;;
46393;Laerm;32099;53.588;10.176;2023-05-07T12:15:52;46.18;36.31;64.00;;
46393;Laerm;32099;53.588;10.176;2023-05-07T12:18:17;48.67;35.41;67.95;;
46393;Laerm;32099;53.588;10.176;2023-05-07T12:20:43;51.96;37.18;71.11;;
46393;Laerm;32099;53.588;10.176;2023-05-07T12:23:09;48.80;36.38;65.70;;
46393;Laerm;32099;53.588;10.176;2023-05-07T12:25:39;49.02;36.76;66.97;;
46393;Laerm;32099;53.588;10.176;2023-05-07T12:28:05;50.96;36.71;66.81;;
46393;Laerm;32099;53.588;10.176;2023-05-07T12:30:32;51.59;36.95;69.44;;
46393;Laerm;32099;53.588;10.176;2023-05-07T12:33:01;46.19;37.57;64.98;;
46393;Laerm;32099;53.588;10.176;2023-05-07T12:35:31;53.98;37.49;71.78;;
46393;Laerm;32099;53.588;10.176;2023-05-07T12:37:58;49.47;37.33;63.50;;
46393;Laerm;32099;53.588;10.176;2023-05-07T12:40:33;48.71;36.73;66.06;;
46393;Laerm;32099;53.588;10.176;2023-05-07T12:43:00;50.78;37.54;65.86;;
46393;Laerm;32099;53.588;10.176;2023-05-07T12:45:26;50.07;37.41;61.07;;
46393;Laerm;32099;53.588;10.176;2023-05-07T12:47:51;43.87;37.64;66.75;;
46393;Laerm;32099;53.588;10.176;2023-05-07T12:50:16;47.65;39.41;66.17;;
46393;Laerm;32099;53.588;10.176;2023-05-07T12:52:47;46.71;37.33;66.45;;
46393;Laerm;32099;53.588;10.176;2023-05-07T12:55:15;46.65;36.61;66.27;;
46393;Laerm;32099;53.588;10.176;2023-05-07T12:57:47;43.05;36.89;63.63;;
46393;Laerm;32099;53.588;10.176;2023-05-07T13:00:13;53.21;38.03;82.75;;
46393;Laerm;32099;53.588;10.176;2023-05-07T13:02:39;45.88;37.89;60.30;;
46393;Laerm;32099;53.588;10.176;2023-05-07T13:05:05;47.67;36.85;67.27;;
46393;Laerm;32099;53.588;10.176;2023-05-07T13:07:31;50.14;37.16;64.79;;
46393;Laerm;32099;53.588;10.176;2023-05-07T13:09:56;50.24;36.78;69.12;;
46393;Laerm;32099;53.588;10.176;2023-05-07T13:12:21;45.88;37.28;62.10;;
46393;Laerm;32099;53.588;10.176;2023-05-07T13:14:47;52.08;37.73;67.98;;
46393;Laerm;32099;53.588;10.176;2023-05-07T13:17:12;45.47;38.15;61.30;;
46393;Laerm;32099;53.588;10.176;2023-05-07T13:19:37;44.39;37.80;61.11;;
46393;Laerm;32099;53.588;10.176;2023-05-07T13:22:03;50.46;37.96;67.63;;
46393;Laerm;32099;53.588;10.176;2023-05-07T13:24:28;53.51;37.77;69.75;;
46393;Laerm;32099;53.588;10.176;2023-05-07T13:26:53;50.91;36.37;69.81;;
46393;Laerm;32099;53.588;10.176;2023-05-07T13:29:19;51.02;36.01;68.89;;
46393;Laerm;32099;53.588;10.176;2023-05-07T13:31:46;46.90;38.02;63.12;;
46393;Laerm;32099;53.588;10.176;2023-05-07T13:34:11;52.54;38.97;69.03;;
46393;Laerm;32099;53.588;10.176;2023-05-07T13:36:36;52.72;36.75;70.85;;